sensor_id;sensor_type;location;lat;lon;timestamp;temperature;humidity
48007;DHT22;33771;48.180;11.400;2023-07-16T00:00:10;20.50;99.90
48007;DHT22;33771;48.180;11.400;2023-07-16T00:02:37;20.40;99.90
48007;DHT22;33771;48.180;11.400;2023-07-16T00:05:03;20.40;99.90
48007;DHT22;33771;48.180;11.400;2023-07-16T00:07:29;20.30;99.90
48007;DHT22;33771;48.180;11.400;2023-07-16T00:09:54;20.30;99.90
48007;DHT22;33771;48.180;11.400;2023-07-16T00:12:20;20.30;99.90
48007;DHT22;33771;48.180;11.400;2023-07-16T00:14:47;20.20;99.90
48007;DHT22;33771;48.180;11.400;2023-07-16T00:17:12;20.30;99.90
48007;DHT22;33771;48.180;11.400;2023-07-16T00:19:38;20.20;99.90
48007;DHT22;33771;48.180;11.400;2023-07-16T00:22:03;20.20;99.90
48007;DHT22;33771;48.180;11.400;2023-07-16T00:24:29;20.20;99.90
48007;DHT22;33771;48.180;11.400;2023-07-16T00:26:54;20.20;99.90
48007;DHT22;33771;48.180;11.400;2023-07-16T00:29:20;20.20;99.90
48007;DHT22;33771;48.180;11.400;2023-07-16T00:31:46;20.20;99.90
48007;DHT22;33771;48.180;11.400;2023-07-16T00:34:11;20.20;99.90
48007;DHT22;33771;48.180;11.400;2023-07-16T00:36:38;20.20;99.90
48007;DHT22;33771;48.180;11.400;2023-07-16T00:39:04;20.20;99.90
48007;DHT22;33771;48.180;11.400;2023-07-16T00:41:29;20.10;99.90
48007;DHT22;33771;48.180;11.400;2023-07-16T00:43:55;20.10;99.90
48007;DHT22;33771;48.180;11.400;2023-07-16T00:46:21;20.10;99.90
48007;DHT22;33771;48.180;11.400;2023-07-16T00:48:47;20.10;99.90
48007;DHT22;33771;48.180;11.400;2023-07-16T00:51:12;20.10;99.90
48007;DHT22;33771;48.180;11.400;2023-07-16T00:53:41;20.10;99.90
48007;DHT22;33771;48.180;11.400;2023-07-16T00:56:07;20.10;99.90
48007;DHT22;33771;48.180;11.400;2023-07-16T00:58:33;20.10;99.90
48007;DHT22;33771;48.180;11.400;2023-07-16T01:00:59;20.10;99.90
48007;DHT22;33771;48.180;11.400;2023-07-16T01:03:25;20.10;99.90
48007;DHT22;33771;48.180;11.400;2023-07-16T01:08:21;20.10;99.90
48007;DHT22;33771;48.180;11.400;2023-07-16T01:10:52;20.10;99.90
48007;DHT22;33771;48.180;11.400;2023-07-16T01:13:17;20.10;99.90
48007;DHT22;33771;48.180;11.400;2023-07-16T01:15:43;20.10;99.90
48007;DHT22;33771;48.180;11.400;2023-07-16T01:18:09;20.10;99.90
48007;DHT22;33771;48.180;11.400;2023-07-16T01:20:34;20.10;99.90
48007;DHT22;33771;48.180;11.400;2023-07-16T01:23:26;20.00;99.90
48007;DHT22;33771;48.180;11.400;2023-07-16T01:26:20;20.00;99.90
48007;DHT22;33771;48.180;11.400;2023-07-16T01:29:07;20.00;99.90
48007;DHT22;33771;48.180;11.400;2023-07-16T01:31:34;20.00;99.90
48007;DHT22;33771;48.180;11.400;2023-07-16T01:34:01;20.00;99.90
48007;DHT22;33771;48.180;11.400;2023-07-16T01:36:27;20.00;99.90
48007;DHT22;33771;48.180;11.400;2023-07-16T01:38:53;20.00;99.90
48007;DHT22;33771;48.180;11.400;2023-07-16T01:41:19;20.00;99.90
48007;DHT22;33771;48.180;11.400;2023-07-16T01:43:44;20.00;99.90
48007;DHT22;33771;48.180;11.400;2023-07-16T01:46:10;20.00;99.90
48007;DHT22;33771;48.180;11.400;2023-07-16T01:48:37;20.00;99.90
48007;DHT22;33771;48.180;11.400;2023-07-16T01:51:03;20.00;99.90
48007;DHT22;33771;48.180;11.400;2023-07-16T01:53:29;20.00;99.90
48007;DHT22;33771;48.180;11.400;2023-07-16T01:55:54;20.00;99.90
48007;DHT22;33771;48.180;11.400;2023-07-16T01:58:20;20.00;99.90
48007;DHT22;33771;48.180;11.400;2023-07-16T02:00:46;20.00;99.90
48007;DHT22;33771;48.180;11.400;2023-07-16T02:03:13;20.00;99.90
48007;DHT22;33771;48.180;11.400;2023-07-16T02:05:39;20.10;99.90
48007;DHT22;33771;48.180;11.400;2023-07-16T02:08:04;20.10;99.90
48007;DHT22;33771;48.180;11.400;2023-07-16T02:10:30;20.10;99.90
48007;DHT22;33771;48.180;11.400;2023-07-16T02:12:56;20.10;99.90
48007;DHT22;33771;48.180;11.400;2023-07-16T02:15:22;20.10;99.90
48007;DHT22;33771;48.180;11.400;2023-07-16T02:17:47;20.10;99.90
48007;DHT22;33771;48.180;11.400;2023-07-16T02:20:13;20.10;99.90
48007;DHT22;33771;48.180;11.400;2023-07-16T02:22:39;20.10;99.90
48007;DHT22;33771;48.180;11.400;2023-07-16T02:25:05;20.10;99.90
48007;DHT22;33771;48.180;11.400;2023-07-16T02:27:31;20.10;99.90
48007;DHT22;33771;48.180;11.400;2023-07-16T02:29:57;20.10;99.90
48007;DHT22;33771;48.180;11.400;2023-07-16T02:32:22;20.10;99.90
48007;DHT22;33771;48.180;11.400;2023-07-16T02:34:48;20.00;99.90
48007;DHT22;33771;48.180;11.400;2023-07-16T02:37:14;20.10;99.90
48007;DHT22;33771;48.180;11.400;2023-07-16T02:39:44;20.10;99.90
48007;DHT22;33771;48.180;11.400;2023-07-16T02:42:10;20.10;99.90
48007;DHT22;33771;48.180;11.400;2023-07-16T02:44:36;20.10;99.90
48007;DHT22;33771;48.180;11.400;2023-07-16T02:47:08;20.10;99.90
48007;DHT22;33771;48.180;11.400;2023-07-16T02:49:34;20.10;99.90
48007;DHT22;33771;48.180;11.400;2023-07-16T02:52:00;20.10;99.90
48007;DHT22;33771;48.180;11.400;2023-07-16T02:54:25;20.20;99.90
48007;DHT22;33771;48.180;11.400;2023-07-16T02:56:50;20.10;99.90
48007;DHT22;33771;48.180;11.400;2023-07-16T02:59:16;20.20;99.90
48007;DHT22;33771;48.180;11.400;2023-07-16T03:01:41;20.20;99.90
48007;DHT22;33771;48.180;11.400;2023-07-16T03:04:08;20.20;99.90
48007;DHT22;33771;48.180;11.400;2023-07-16T03:06:34;20.10;99.90
48007;DHT22;33771;48.180;11.400;2023-07-16T03:08:59;20.10;99.90
48007;DHT22;33771;48.180;11.400;2023-07-16T03:11:25;20.10;99.90
48007;DHT22;33771;48.180;11.400;2023-07-16T03:13:50;20.20;99.90
48007;DHT22;33771;48.180;11.400;2023-07-16T03:16:16;20.10;99.90
48007;DHT22;33771;48.180;11.400;2023-07-16T03:18:42;20.10;99.90
48007;DHT22;33771;48.180;11.400;2023-07-16T03:21:07;20.10;99.90
48007;DHT22;33771;48.180;11.400;2023-07-16T03:23:33;20.10;99.90
48007;DHT22;33771;48.180;11.400;2023-07-16T03:25:58;20.10;99.90
48007;DHT22;33771;48.180;11.400;2023-07-16T03:28:24;20.10;99.90
48007;DHT22;33771;48.180;11.400;2023-07-16T03:30:50;20.00;99.90
48007;DHT22;33771;48.180;11.400;2023-07-16T03:33:16;20.00;99.90
48007;DHT22;33771;48.180;11.400;2023-07-16T03:35:43;20.00;99.90
48007;DHT22;33771;48.180;11.400;2023-07-16T03:38:10;20.00;99.90
48007;DHT22;33771;48.180;11.400;2023-07-16T03:40:36;20.00;99.90
48007;DHT22;33771;48.180;11.400;2023-07-16T03:43:01;20.00;99.90
48007;DHT22;33771;48.180;11.400;2023-07-16T03:45:27;20.10;99.90
48007;DHT22;33771;48.180;11.400;2023-07-16T03:47:52;20.10;99.90
48007;DHT22;33771;48.180;11.400;2023-07-16T03:50:18;20.10;99.90
48007;DHT22;33771;48.180;11.400;2023-07-16T03:52:44;20.10;99.90
48007;DHT22;33771;48.180;11.400;2023-07-16T03:55:09;20.00;99.90
48007;DHT22;33771;48.180;11.400;2023-07-16T03:57:35;20.00;99.90
48007;DHT22;33771;48.180;11.400;2023-07-16T04:00:04;20.10;99.90
48007;DHT22;33771;48.180;11.400;2023-07-16T04:02:35;20.00;99.90
48007;DHT22;33771;48.180;11.400;2023-07-16T04:05:00;20.00;99.90
48007;DHT22;33771;48.180;11.400;2023-07-16T04:07:26;19.90;99.90
48007;DHT22;33771;48.180;11.400;2023-07-16T04:09:51;19.90;99.90
48007;DHT22;33771;48.180;11.400;2023-07-16T04:12:17;20.00;99.90
48007;DHT22;33771;48.180;11.400;2023-07-16T04:14:43;19.90;99.90
48007;DHT22;33771;48.180;11.400;2023-07-16T04:17:08;19.90;99.90
48007;DHT22;33771;48.180;11.400;2023-07-16T04:19:34;19.90;99.90
48007;DHT22;33771;48.180;11.400;2023-07-16T04:22:00;19.80;99.90
48007;DHT22;33771;48.180;11.400;2023-07-16T04:24:25;19.70;99.90
48007;DHT22;33771;48.180;11.400;2023-07-16T04:26:53;19.70;99.90
48007;DHT22;33771;48.180;11.400;2023-07-16T04:29:18;19.70;99.90
48007;DHT22;33771;48.180;11.400;2023-07-16T04:31:44;19.70;99.90
48007;DHT22;33771;48.180;11.400;2023-07-16T04:34:09;19.60;99.90
48007;DHT22;33771;48.180;11.400;2023-07-16T04:36:35;19.60;99.90
48007;DHT22;33771;48.180;11.400;2023-07-16T04:39:00;19.60;99.90
48007;DHT22;33771;48.180;11.400;2023-07-16T04:41:26;19.60;99.90
48007;DHT22;33771;48.180;11.400;2023-07-16T04:43:52;19.60;99.90
48007;DHT22;33771;48.180;11.400;2023-07-16T04:46:18;19.70;99.90
48007;DHT22;33771;48.180;11.400;2023-07-16T04:48:43;19.70;99.90
48007;DHT22;33771;48.180;11.400;2023-07-16T04:51:09;19.70;99.90
48007;DHT22;33771;48.180;11.400;2023-07-16T04:53:34;19.60;99.90
48007;DHT22;33771;48.180;11.400;2023-07-16T04:56:00;19.60;99.90
48007;DHT22;33771;48.180;11.400;2023-07-16T04:58:25;19.60;99.90
48007;DHT22;33771;48.180;11.400;2023-07-16T05:00:51;19.60;99.90
48007;DHT22;33771;48.180;11.400;2023-07-16T05:03:16;19.60;99.90
48007;DHT22;33771;48.180;11.400;2023-07-16T05:05:42;19.50;99.90
48007;DHT22;33771;48.180;11.400;2023-07-16T05:08:08;19.50;99.90
48007;DHT22;33771;48.180;11.400;2023-07-16T05:10:33;19.50;99.90
48007;DHT22;33771;48.180;11.400;2023-07-16T05:12:59;19.60;99.90
48007;DHT22;33771;48.180;11.400;2023-07-16T05:15:24;19.60;99.90
48007;DHT22;33771;48.180;11.400;2023-07-16T05:17:50;19.70;99.90
48007;DHT22;33771;48.180;11.400;2023-07-16T05:20:16;19.70;99.90
48007;DHT22;33771;48.180;11.400;2023-07-16T05:22:41;19.70;99.90
48007;DHT22;33771;48.180;11.400;2023-07-16T05:25:07;19.70;99.90
48007;DHT22;33771;48.180;11.400;2023-07-16T05:27:33;19.70;99.90
48007;DHT22;33771;48.180;11.400;2023-07-16T05:29:58;19.70;99.90
48007;DHT22;33771;48.180;11.400;2023-07-16T05:32:24;19.80;99.90
48007;DHT22;33771;48.180;11.400;2023-07-16T05:34:49;19.80;99.90
48007;DHT22;33771;48.180;11.400;2023-07-16T05:37:15;19.90;99.90
48007;DHT22;33771;48.180;11.400;2023-07-16T05:39:40;19.90;99.90
48007;DHT22;33771;48.180;11.400;2023-07-16T05:42:06;20.00;99.90
48007;DHT22;33771;48.180;11.400;2023-07-16T05:44:32;20.00;99.90
48007;DHT22;33771;48.180;11.400;2023-07-16T05:46:57;20.10;99.90
48007;DHT22;33771;48.180;11.400;2023-07-16T05:49:24;20.10;99.90
48007;DHT22;33771;48.180;11.400;2023-07-16T05:51:49;20.20;99.90
48007;DHT22;33771;48.180;11.400;2023-07-16T05:54:15;20.20;99.90
48007;DHT22;33771;48.180;11.400;2023-07-16T05:56:40;20.30;99.90
48007;DHT22;33771;48.180;11.400;2023-07-16T05:59:06;20.40;99.90
48007;DHT22;33771;48.180;11.400;2023-07-16T06:01:31;20.50;99.90
48007;DHT22;33771;48.180;11.400;2023-07-16T06:03:57;20.50;99.90
48007;DHT22;33771;48.180;11.400;2023-07-16T06:06:22;20.60;99.90
48007;DHT22;33771;48.180;11.400;2023-07-16T06:08:48;20.70;99.90
48007;DHT22;33771;48.180;11.400;2023-07-16T06:11:14;20.80;99.90
48007;DHT22;33771;48.180;11.400;2023-07-16T06:13:40;20.80;99.90
48007;DHT22;33771;48.180;11.400;2023-07-16T06:16:05;20.90;99.90
48007;DHT22;33771;48.180;11.400;2023-07-16T06:18:31;21.00;99.90
48007;DHT22;33771;48.180;11.400;2023-07-16T06:20:56;21.00;99.90
48007;DHT22;33771;48.180;11.400;2023-07-16T06:23:22;21.10;99.90
48007;DHT22;33771;48.180;11.400;2023-07-16T06:25:47;21.00;99.90
48007;DHT22;33771;48.180;11.400;2023-07-16T06:28:14;21.00;99.90
48007;DHT22;33771;48.180;11.400;2023-07-16T06:30:40;20.90;99.90
48007;DHT22;33771;48.180;11.400;2023-07-16T06:33:06;20.90;99.90
48007;DHT22;33771;48.180;11.400;2023-07-16T06:35:31;20.90;99.90
48007;DHT22;33771;48.180;11.400;2023-07-16T06:37:57;20.90;99.90
48007;DHT22;33771;48.180;11.400;2023-07-16T06:40:24;20.90;99.90
48007;DHT22;33771;48.180;11.400;2023-07-16T06:42:50;20.90;99.90
48007;DHT22;33771;48.180;11.400;2023-07-16T06:45:17;20.90;99.90
48007;DHT22;33771;48.180;11.400;2023-07-16T06:47:43;21.00;99.90
48007;DHT22;33771;48.180;11.400;2023-07-16T06:50:08;21.00;99.90
48007;DHT22;33771;48.180;11.400;2023-07-16T06:52:34;21.10;99.90
48007;DHT22;33771;48.180;11.400;2023-07-16T06:54:59;21.20;99.90
48007;DHT22;33771;48.180;11.400;2023-07-16T06:57:25;21.20;99.90
48007;DHT22;33771;48.180;11.400;2023-07-16T06:59:50;21.30;99.90
48007;DHT22;33771;48.180;11.400;2023-07-16T07:02:17;21.30;99.90
48007;DHT22;33771;48.180;11.400;2023-07-16T07:04:43;21.30;99.90
48007;DHT22;33771;48.180;11.400;2023-07-16T07:07:09;21.30;99.90
48007;DHT22;33771;48.180;11.400;2023-07-16T07:09:34;21.30;99.90
48007;DHT22;33771;48.180;11.400;2023-07-16T07:12:00;21.30;99.90
48007;DHT22;33771;48.180;11.400;2023-07-16T07:14:25;21.30;99.90
48007;DHT22;33771;48.180;11.400;2023-07-16T07:16:51;21.30;99.90
48007;DHT22;33771;48.180;11.400;2023-07-16T07:19:16;21.20;99.90
48007;DHT22;33771;48.180;11.400;2023-07-16T07:21:42;21.20;99.90
48007;DHT22;33771;48.180;11.400;2023-07-16T07:24:07;21.20;99.90
48007;DHT22;33771;48.180;11.400;2023-07-16T07:26:33;21.20;99.90
48007;DHT22;33771;48.180;11.400;2023-07-16T07:28:58;21.20;99.90
48007;DHT22;33771;48.180;11.400;2023-07-16T07:31:24;21.30;99.90
48007;DHT22;33771;48.180;11.400;2023-07-16T07:33:49;21.40;99.90
48007;DHT22;33771;48.180;11.400;2023-07-16T07:36:15;21.40;99.90
48007;DHT22;33771;48.180;11.400;2023-07-16T07:38:40;21.50;99.90
48007;DHT22;33771;48.180;11.400;2023-07-16T07:41:06;21.60;99.90
48007;DHT22;33771;48.180;11.400;2023-07-16T07:43:32;21.70;99.90
48007;DHT22;33771;48.180;11.400;2023-07-16T07:45:57;21.90;99.90
48007;DHT22;33771;48.180;11.400;2023-07-16T07:48:23;22.00;99.90
48007;DHT22;33771;48.180;11.400;2023-07-16T07:50:49;22.00;99.90
48007;DHT22;33771;48.180;11.400;2023-07-16T07:53:14;22.00;99.90
48007;DHT22;33771;48.180;11.400;2023-07-16T07:55:40;22.10;99.90
48007;DHT22;33771;48.180;11.400;2023-07-16T07:58:07;22.00;99.90
48007;DHT22;33771;48.180;11.400;2023-07-16T08:00:33;22.10;99.90
48007;DHT22;33771;48.180;11.400;2023-07-16T08:02:59;22.10;99.90
48007;DHT22;33771;48.180;11.400;2023-07-16T08:05:24;22.00;99.90
48007;DHT22;33771;48.180;11.400;2023-07-16T08:07:50;22.10;99.90
48007;DHT22;33771;48.180;11.400;2023-07-16T08:10:15;22.20;99.90
48007;DHT22;33771;48.180;11.400;2023-07-16T08:12:41;22.30;99.90
48007;DHT22;33771;48.180;11.400;2023-07-16T08:15:07;22.30;99.90
48007;DHT22;33771;48.180;11.400;2023-07-16T08:17:34;22.40;99.90
48007;DHT22;33771;48.180;11.400;2023-07-16T08:20:00;22.60;99.90
48007;DHT22;33771;48.180;11.400;2023-07-16T08:22:25;22.80;99.90
48007;DHT22;33771;48.180;11.400;2023-07-16T08:24:52;23.00;99.90
48007;DHT22;33771;48.180;11.400;2023-07-16T08:27:17;23.30;99.90
48007;DHT22;33771;48.180;11.400;2023-07-16T08:29:44;23.50;99.90
48007;DHT22;33771;48.180;11.400;2023-07-16T08:32:09;23.60;99.90
48007;DHT22;33771;48.180;11.400;2023-07-16T08:34:35;23.70;99.90
48007;DHT22;33771;48.180;11.400;2023-07-16T08:37:00;23.80;99.90
48007;DHT22;33771;48.180;11.400;2023-07-16T08:39:26;23.90;99.90
48007;DHT22;33771;48.180;11.400;2023-07-16T08:41:51;24.00;99.90
48007;DHT22;33771;48.180;11.400;2023-07-16T08:44:17;24.00;99.90
48007;DHT22;33771;48.180;11.400;2023-07-16T08:46:43;24.10;99.90
48007;DHT22;33771;48.180;11.400;2023-07-16T08:49:09;24.10;99.90
48007;DHT22;33771;48.180;11.400;2023-07-16T08:51:36;24.10;99.90
48007;DHT22;33771;48.180;11.400;2023-07-16T08:54:03;24.20;99.90
48007;DHT22;33771;48.180;11.400;2023-07-16T08:56:28;24.20;99.90
48007;DHT22;33771;48.180;11.400;2023-07-16T08:58:55;24.40;99.90
48007;DHT22;33771;48.180;11.400;2023-07-16T09:01:23;24.50;99.90
48007;DHT22;33771;48.180;11.400;2023-07-16T09:03:49;24.60;99.90
48007;DHT22;33771;48.180;11.400;2023-07-16T09:06:15;24.50;99.90
48007;DHT22;33771;48.180;11.400;2023-07-16T09:08:41;24.50;99.90
48007;DHT22;33771;48.180;11.400;2023-07-16T09:11:11;24.70;99.90
48007;DHT22;33771;48.180;11.400;2023-07-16T09:13:37;24.90;99.90
48007;DHT22;33771;48.180;11.400;2023-07-16T09:16:03;24.90;99.90
48007;DHT22;33771;48.180;11.400;2023-07-16T09:18:29;25.00;99.90
48007;DHT22;33771;48.180;11.400;2023-07-16T09:20:58;25.00;99.90
48007;DHT22;33771;48.180;11.400;2023-07-16T09:23:26;25.20;99.90
48007;DHT22;33771;48.180;11.400;2023-07-16T09:25:55;25.30;99.90
48007;DHT22;33771;48.180;11.400;2023-07-16T09:28:21;25.00;99.90
48007;DHT22;33771;48.180;11.400;2023-07-16T09:30:47;25.00;99.90
48007;DHT22;33771;48.180;11.400;2023-07-16T09:33:21;24.70;99.90
48007;DHT22;33771;48.180;11.400;2023-07-16T09:35:49;24.70;99.90
48007;DHT22;33771;48.180;11.400;2023-07-16T09:38:15;24.80;99.90
48007;DHT22;33771;48.180;11.400;2023-07-16T09:40:41;24.90;99.90
48007;DHT22;33771;48.180;11.400;2023-07-16T09:43:08;25.00;99.90
48007;DHT22;33771;48.180;11.400;2023-07-16T09:45:34;25.10;99.90
48007;DHT22;33771;48.180;11.400;2023-07-16T09:48:00;25.20;99.90
48007;DHT22;33771;48.180;11.400;2023-07-16T09:50:30;25.30;99.90
48007;DHT22;33771;48.180;11.400;2023-07-16T09:52:57;25.50;99.90
48007;DHT22;33771;48.180;11.400;2023-07-16T09:55:24;25.50;99.90
48007;DHT22;33771;48.180;11.400;2023-07-16T09:57:53;25.30;99.90
48007;DHT22;33771;48.180;11.400;2023-07-16T10:00:21;25.10;99.90
48007;DHT22;33771;48.180;11.400;2023-07-16T10:02:47;25.10;99.90
48007;DHT22;33771;48.180;11.400;2023-07-16T10:05:18;25.00;99.90
48007;DHT22;33771;48.180;11.400;2023-07-16T10:07:50;25.00;99.90
48007;DHT22;33771;48.180;11.400;2023-07-16T10:10:16;25.00;99.90
48007;DHT22;33771;48.180;11.400;2023-07-16T10:12:43;25.00;99.90
48007;DHT22;33771;48.180;11.400;2023-07-16T10:15:25;24.90;99.90
48007;DHT22;33771;48.180;11.400;2023-07-16T10:17:51;24.90;99.90
48007;DHT22;33771;48.180;11.400;2023-07-16T10:20:17;24.90;99.90
48007;DHT22;33771;48.180;11.400;2023-07-16T10:22:46;24.90;99.90
48007;DHT22;33771;48.180;11.400;2023-07-16T10:27:48;25.00;99.90
48007;DHT22;33771;48.180;11.400;2023-07-16T10:30:14;25.00;99.90
48007;DHT22;33771;48.180;11.400;2023-07-16T10:32:40;25.00;99.90
48007;DHT22;33771;48.180;11.400;2023-07-16T10:35:06;25.00;99.90
48007;DHT22;33771;48.180;11.400;2023-07-16T10:37:34;25.10;99.90
48007;DHT22;33771;48.180;11.400;2023-07-16T10:40:01;25.20;99.90
48007;DHT22;33771;48.180;11.400;2023-07-16T10:42:28;25.20;99.90
48007;DHT22;33771;48.180;11.400;2023-07-16T10:44:57;25.40;99.90
48007;DHT22;33771;48.180;11.400;2023-07-16T10:47:37;25.50;99.90
48007;DHT22;33771;48.180;11.400;2023-07-16T10:50:07;25.60;99.90
48007;DHT22;33771;48.180;11.400;2023-07-16T10:52:34;25.70;99.90
48007;DHT22;33771;48.180;11.400;2023-07-16T10:55:00;26.00;99.90
48007;DHT22;33771;48.180;11.400;2023-07-16T10:57:26;26.60;99.90
48007;DHT22;33771;48.180;11.400;2023-07-16T10:59:53;26.90;99.90
48007;DHT22;33771;48.180;11.400;2023-07-16T11:02:21;27.10;99.90
48007;DHT22;33771;48.180;11.400;2023-07-16T11:04:47;27.20;99.90
48007;DHT22;33771;48.180;11.400;2023-07-16T11:07:14;27.50;99.90
48007;DHT22;33771;48.180;11.400;2023-07-16T11:09:53;27.70;99.90
48007;DHT22;33771;48.180;11.400;2023-07-16T11:12:21;27.80;99.90
48007;DHT22;33771;48.180;11.400;2023-07-16T11:14:48;27.70;99.90
48007;DHT22;33771;48.180;11.400;2023-07-16T11:17:15;27.50;99.90
48007;DHT22;33771;48.180;11.400;2023-07-16T11:19:44;27.20;99.90
48007;DHT22;33771;48.180;11.400;2023-07-16T11:22:10;27.10;99.90
48007;DHT22;33771;48.180;11.400;2023-07-16T11:24:42;26.90;99.90
48007;DHT22;33771;48.180;11.400;2023-07-16T11:27:27;26.90;99.90
48007;DHT22;33771;48.180;11.400;2023-07-16T11:29:57;26.70;99.90
48007;DHT22;33771;48.180;11.400;2023-07-16T11:32:43;26.60;99.90
48007;DHT22;33771;48.180;11.400;2023-07-16T11:35:11;26.70;99.90
48007;DHT22;33771;48.180;11.400;2023-07-16T11:37:37;26.80;99.90
48007;DHT22;33771;48.180;11.400;2023-07-16T11:40:05;26.80;99.90
48007;DHT22;33771;48.180;11.400;2023-07-16T11:42:36;26.70;99.90
48007;DHT22;33771;48.180;11.400;2023-07-16T11:45:02;26.70;99.90
48007;DHT22;33771;48.180;11.400;2023-07-16T11:47:29;26.70;99.90
48007;DHT22;33771;48.180;11.400;2023-07-16T11:49:54;27.10;99.90
48007;DHT22;33771;48.180;11.400;2023-07-16T11:52:22;27.50;99.90
48007;DHT22;33771;48.180;11.400;2023-07-16T11:54:48;27.70;99.90
48007;DHT22;33771;48.180;11.400;2023-07-16T11:57:14;28.00;99.90
48007;DHT22;33771;48.180;11.400;2023-07-16T11:59:39;28.30;99.90
48007;DHT22;33771;48.180;11.400;2023-07-16T12:02:05;28.40;99.90
48007;DHT22;33771;48.180;11.400;2023-07-16T12:04:31;28.70;99.90
48007;DHT22;33771;48.180;11.400;2023-07-16T12:06:56;28.90;99.90
48007;DHT22;33771;48.180;11.400;2023-07-16T12:09:22;28.80;99.90
48007;DHT22;33771;48.180;11.400;2023-07-16T12:11:47;28.90;99.90
48007;DHT22;33771;48.180;11.400;2023-07-16T12:14:13;29.20;99.90
48007;DHT22;33771;48.180;11.400;2023-07-16T12:16:39;29.40;99.90
48007;DHT22;33771;48.180;11.400;2023-07-16T12:19:08;29.30;99.90
48007;DHT22;33771;48.180;11.400;2023-07-16T12:21:34;29.00;99.90
48007;DHT22;33771;48.180;11.400;2023-07-16T12:23:59;29.00;99.90
48007;DHT22;33771;48.180;11.400;2023-07-16T12:26:25;28.60;99.90
48007;DHT22;33771;48.180;11.400;2023-07-16T12:28:50;28.20;99.90
48007;DHT22;33771;48.180;11.400;2023-07-16T12:31:16;28.00;99.90
48007;DHT22;33771;48.180;11.400;2023-07-16T12:33:43;27.80;99.90
48007;DHT22;33771;48.180;11.400;2023-07-16T12:36:08;27.90;99.90
48007;DHT22;33771;48.180;11.400;2023-07-16T12:38:34;27.80;99.90
48007;DHT22;33771;48.180;11.400;2023-07-16T12:40:59;27.60;99.90
48007;DHT22;33771;48.180;11.400;2023-07-16T12:43:25;27.50;99.90
48007;DHT22;33771;48.180;11.400;2023-07-16T12:45:50;27.20;99.90
48007;DHT22;33771;48.180;11.400;2023-07-16T12:48:16;27.00;99.90
48007;DHT22;33771;48.180;11.400;2023-07-16T12:50:41;26.90;99.90
48007;DHT22;33771;48.180;11.400;2023-07-16T12:53:08;26.90;99.90
48007;DHT22;33771;48.180;11.400;2023-07-16T12:55:33;26.80;99.90
48007;DHT22;33771;48.180;11.400;2023-07-16T12:57:59;26.90;99.90
48007;DHT22;33771;48.180;11.400;2023-07-16T13:00:25;27.00;99.90
48007;DHT22;33771;48.180;11.400;2023-07-16T13:02:50;27.00;99.90
48007;DHT22;33771;48.180;11.400;2023-07-16T13:05:16;27.00;99.90
48007;DHT22;33771;48.180;11.400;2023-07-16T13:07:41;26.80;99.90
48007;DHT22;33771;48.180;11.400;2023-07-16T13:10:08;26.80;99.90
48007;DHT22;33771;48.180;11.400;2023-07-16T13:12:34;26.80;99.90
48007;DHT22;33771;48.180;11.400;2023-07-16T13:14:59;26.80;99.90
48007;DHT22;33771;48.180;11.400;2023-07-16T13:17:25;26.70;99.90
48007;DHT22;33771;48.180;11.400;2023-07-16T13:19:50;26.70;99.90
48007;DHT22;33771;48.180;11.400;2023-07-16T13:22:16;26.70;99.90
48007;DHT22;33771;48.180;11.400;2023-07-16T13:24:41;26.80;99.90
48007;DHT22;33771;48.180;11.400;2023-07-16T13:27:09;26.80;99.90
48007;DHT22;33771;48.180;11.400;2023-07-16T13:29:35;26.70;99.90
48007;DHT22;33771;48.180;11.400;2023-07-16T13:32:01;26.70;99.90
48007;DHT22;33771;48.180;11.400;2023-07-16T13:34:26;26.70;99.90
48007;DHT22;33771;48.180;11.400;2023-07-16T13:36:52;26.90;99.90
48007;DHT22;33771;48.180;11.400;2023-07-16T13:39:17;27.10;99.90
48007;DHT22;33771;48.180;11.400;2023-07-16T13:41:43;27.30;99.90
48007;DHT22;33771;48.180;11.400;2023-07-16T13:44:08;27.40;99.90
48007;DHT22;33771;48.180;11.400;2023-07-16T13:46:34;27.30;99.90
48007;DHT22;33771;48.180;11.400;2023-07-16T13:48:59;27.20;99.90
48007;DHT22;33771;48.180;11.400;2023-07-16T13:51:26;27.10;99.90
48007;DHT22;33771;48.180;11.400;2023-07-16T13:53:51;27.00;99.90
48007;DHT22;33771;48.180;11.400;2023-07-16T13:56:17;26.80;99.90
48007;DHT22;33771;48.180;11.400;2023-07-16T13:58:42;26.70;99.90
48007;DHT22;33771;48.180;11.400;2023-07-16T14:01:08;26.80;99.90
48007;DHT22;33771;48.180;11.400;2023-07-16T14:03:33;26.70;99.90
48007;DHT22;33771;48.180;11.400;2023-07-16T14:05:59;26.60;99.90
48007;DHT22;33771;48.180;11.400;2023-07-16T14:08:24;26.50;99.90
48007;DHT22;33771;48.180;11.400;2023-07-16T14:10:50;26.40;99.90
48007;DHT22;33771;48.180;11.400;2023-07-16T14:13:15;26.40;99.90
48007;DHT22;33771;48.180;11.400;2023-07-16T14:15:41;26.40;99.90
48007;DHT22;33771;48.180;11.400;2023-07-16T14:18:07;26.30;99.90
48007;DHT22;33771;48.180;11.400;2023-07-16T14:20:33;26.40;99.90
48007;DHT22;33771;48.180;11.400;2023-07-16T14:22:58;26.40;99.90
48007;DHT22;33771;48.180;11.400;2023-07-16T14:25:24;26.40;99.90
48007;DHT22;33771;48.180;11.400;2023-07-16T14:27:49;26.30;99.90
48007;DHT22;33771;48.180;11.400;2023-07-16T14:30:15;26.20;99.90
48007;DHT22;33771;48.180;11.400;2023-07-16T14:32:40;26.20;99.90
48007;DHT22;33771;48.180;11.400;2023-07-16T14:35:08;26.30;99.90
48007;DHT22;33771;48.180;11.400;2023-07-16T14:37:34;26.30;99.90
48007;DHT22;33771;48.180;11.400;2023-07-16T14:39:59;26.30;99.90
48007;DHT22;33771;48.180;11.400;2023-07-16T14:42:25;26.30;99.90
48007;DHT22;33771;48.180;11.400;2023-07-16T14:44:50;26.20;99.90
48007;DHT22;33771;48.180;11.400;2023-07-16T14:47:16;26.20;99.90
48007;DHT22;33771;48.180;11.400;2023-07-16T14:49:42;26.10;99.90
48007;DHT22;33771;48.180;11.400;2023-07-16T14:52:07;26.10;99.90
48007;DHT22;33771;48.180;11.400;2023-07-16T14:54:33;26.20;99.90
48007;DHT22;33771;48.180;11.400;2023-07-16T14:57:01;26.20;99.90
48007;DHT22;33771;48.180;11.400;2023-07-16T14:59:28;26.30;99.90
48007;DHT22;33771;48.180;11.400;2023-07-16T15:01:54;26.40;99.90
48007;DHT22;33771;48.180;11.400;2023-07-16T15:04:19;26.40;99.90
48007;DHT22;33771;48.180;11.400;2023-07-16T15:06:45;26.40;99.90
48007;DHT22;33771;48.180;11.400;2023-07-16T15:09:10;26.40;99.90
48007;DHT22;33771;48.180;11.400;2023-07-16T15:11:37;26.40;99.90
48007;DHT22;33771;48.180;11.400;2023-07-16T15:14:03;26.50;99.90